createdAt,value
2023-03-12T00:01:25.452Z,95845.34
2023-03-12T00:03:55.038Z,95831.22
2023-03-12T00:06:24.106Z,95826.53
2023-03-12T00:08:55.164Z,95828.41
2023-03-12T00:11:25.200Z,95826.31
2023-03-12T00:13:56.360Z,95824.53
2023-03-12T00:16:25.954Z,95807.78
2023-03-12T00:18:56.295Z,95797.88
2023-03-12T00:21:25.407Z,95787.94
2023-03-12T00:23:54.500Z,95789.28
2023-03-12T00:26:23.660Z,95780.41
2023-03-12T00:28:52.939Z,95788.25
2023-03-12T00:31:28.688Z,95788.03
2023-03-12T00:33:57.965Z,95788.28
2023-03-12T00:36:29.612Z,95781.22
2023-03-12T00:39:00.408Z,95789.91
2023-03-12T00:41:30.955Z,95791.47
2023-03-12T00:44:00.442Z,95789.38
2023-03-12T00:46:30.156Z,95790.97
2023-03-12T00:48:59.006Z,95786.78
2023-03-12T00:51:27.930Z,95790.97
2023-03-12T00:53:57.001Z,95778.09
2023-03-12T00:56:26.471Z,95776.78
2023-03-12T00:58:55.351Z,95766.03
2023-03-12T01:01:25.238Z,95765.50
2023-03-12T01:03:55.108Z,95760.25
2023-03-12T01:06:23.919Z,95745.28
2023-03-12T01:08:53.052Z,95745.56
2023-03-12T01:11:23.283Z,95732.19
2023-03-12T01:13:52.050Z,95738.75
2023-03-12T01:16:21.012Z,95715.09
2023-03-12T01:18:49.759Z,95714.81
2023-03-12T01:21:18.503Z,95710.34
2023-03-12T01:23:47.291Z,95700.88
2023-03-12T01:26:16.073Z,95689.28
2023-03-12T01:28:45.365Z,95677.47
2023-03-12T01:31:17.663Z,95666.72
2023-03-12T01:33:50.754Z,95675.09
2023-03-12T01:36:19.505Z,95672.38
2023-03-12T01:38:49.128Z,95664.72
2023-03-12T01:41:18.230Z,95653.38
2023-03-12T01:43:47.794Z,95643.56
2023-03-12T01:46:27.370Z,95651.22
2023-03-12T01:49:09.588Z,95644.13
2023-03-12T01:51:56.033Z,95640.16
2023-03-12T01:54:45.720Z,95631.59
2023-03-12T01:57:26.610Z,95630.69
2023-03-12T02:00:00.380Z,95630.22
2023-03-12T02:02:30.748Z,95618.47
2023-03-12T02:05:34.368Z,95616.66
2023-03-12T02:08:03.253Z,95602.66
2023-03-12T02:10:32.187Z,95590.78
2023-03-12T02:13:01.050Z,95587.78
2023-03-12T02:15:30.451Z,95579.88
2023-03-12T02:18:04.583Z,95575.91
2023-03-12T02:21:11.918Z,95575.28
2023-03-12T02:24:02.505Z,95574.63
2023-03-12T02:26:36.527Z,95569.66
2023-03-12T02:29:07.165Z,95570.50
2023-03-12T02:31:49.567Z,95571.22
2023-03-12T02:34:18.388Z,95568.59
2023-03-12T02:36:49.813Z,95553.59
2023-03-12T02:39:19.535Z,95550.00
2023-03-12T02:41:58.364Z,95549.81
2023-03-12T02:44:38.535Z,95535.22
2023-03-12T02:47:07.831Z,95541.69
2023-03-12T02:49:36.768Z,95530.44
2023-03-12T02:52:05.845Z,95518.31
2023-03-12T02:54:36.880Z,95519.28
2023-03-12T02:57:05.800Z,95514.94
2023-03-12T02:59:36.237Z,95511.97
2023-03-12T03:02:07.772Z,95498.50
2023-03-12T03:04:37.097Z,95501.69
2023-03-12T03:07:06.303Z,95500.28
2023-03-12T03:09:35.288Z,95498.00
2023-03-12T03:12:04.791Z,95492.72
2023-03-12T03:14:35.636Z,95483.03
2023-03-12T03:17:05.442Z,95452.94
2023-03-12T03:19:34.487Z,95458.81
2023-03-12T03:22:03.449Z,95451.94
2023-03-12T03:24:32.457Z,95443.63
2023-03-12T03:27:01.226Z,95454.41
2023-03-12T03:29:30.069Z,95446.16
2023-03-12T03:31:58.928Z,95440.34
2023-03-12T03:34:28.759Z,95441.53
2023-03-12T03:36:57.749Z,95422.91
2023-03-12T03:39:26.775Z,95417.31
2023-03-12T03:41:55.733Z,95430.50
2023-03-12T03:44:27.409Z,95400.69
2023-03-12T03:46:57.208Z,95397.47
2023-03-12T03:49:26.991Z,95412.41
2023-03-12T03:51:56.332Z,95407.84
2023-03-12T03:54:32.058Z,95399.56
2023-03-12T03:57:02.073Z,95394.75
2023-03-12T03:59:33.703Z,95392.53
2023-03-12T04:02:03.137Z,95391.28
2023-03-12T04:04:35.817Z,95391.03
2023-03-12T04:07:05.299Z,95390.63
2023-03-12T04:09:34.306Z,95378.41
2023-03-12T04:12:03.606Z,95374.97
2023-03-12T04:14:32.831Z,95376.44
2023-03-12T04:17:01.935Z,95375.59
2023-03-12T04:19:30.834Z,95374.63
2023-03-12T04:21:59.668Z,95363.72
2023-03-12T04:24:28.669Z,95361.84
2023-03-12T04:26:59.705Z,95352.44
2023-03-12T04:29:29.045Z,95353.88
2023-03-12T04:31:58.864Z,95337.41
2023-03-12T04:34:27.957Z,95323.69
2023-03-12T04:36:58.082Z,95314.94
2023-03-12T04:39:27.086Z,95336.28
2023-03-12T04:41:56.276Z,95338.28
2023-03-12T04:44:25.102Z,95316.50
2023-03-12T04:46:54.038Z,95316.34
2023-03-12T04:49:26.475Z,95297.97
2023-03-12T04:51:57.619Z,95292.50
2023-03-12T04:54:26.478Z,95280.50
2023-03-12T04:56:55.625Z,95288.03
2023-03-12T04:59:24.955Z,95285.41
2023-03-12T05:01:54.842Z,95288.16
2023-03-12T05:04:28.631Z,95286.28
2023-03-12T05:06:57.864Z,95285.00
2023-03-12T05:09:26.832Z,95280.94
2023-03-12T05:11:55.931Z,95283.72
2023-03-12T05:14:25.018Z,95272.09
2023-03-12T05:16:54.492Z,95266.78
2023-03-12T05:19:23.415Z,95264.63
2023-03-12T05:21:52.070Z,95253.47
2023-03-12T05:24:22.612Z,95243.00
2023-03-12T05:26:51.867Z,95242.50
2023-03-12T05:29:24.418Z,95233.06
2023-03-12T05:31:54.593Z,95218.78
2023-03-12T05:34:23.662Z,95206.91
2023-03-12T05:36:54.270Z,95203.25
2023-03-12T05:39:26.782Z,95186.00
2023-03-12T05:41:58.210Z,95193.44
2023-03-12T05:44:28.720Z,95178.69
2023-03-12T05:46:59.017Z,95203.16
2023-03-12T05:49:29.033Z,95179.97
2023-03-12T05:51:59.172Z,95174.63
2023-03-12T05:54:28.480Z,95170.31
2023-03-12T05:56:58.236Z,95158.34
2023-03-12T05:59:28.412Z,95152.03
2023-03-12T06:01:58.951Z,95153.38
2023-03-12T06:04:28.144Z,95156.78
2023-03-12T06:06:57.215Z,95147.66
2023-03-12T06:09:26.232Z,95138.94
2023-03-12T06:11:55.784Z,95133.19
2023-03-12T06:14:24.702Z,95123.53
2023-03-12T06:16:55.251Z,95130.66
2023-03-12T06:19:27.325Z,95113.19
2023-03-12T06:21:56.228Z,95105.06
2023-03-12T06:24:25.342Z,95089.81
2023-03-12T06:27:02.213Z,95083.19
2023-03-12T06:29:30.881Z,95063.84
2023-03-12T06:31:59.811Z,95079.94
2023-03-12T06:34:28.610Z,95116.22
2023-03-12T06:36:57.451Z,95117.00
2023-03-12T06:39:26.356Z,95109.34
2023-03-12T06:41:55.339Z,95110.63
2023-03-12T06:44:24.341Z,95105.78
2023-03-12T06:46:53.205Z,95114.53
2023-03-12T06:49:22.111Z,95108.41
2023-03-12T06:51:51.276Z,95109.34
2023-03-12T06:54:20.205Z,95099.28
2023-03-12T06:56:49.059Z,95108.06
2023-03-12T06:59:19.033Z,95106.69
2023-03-12T07:01:48.704Z,95111.50
2023-03-12T07:04:18.346Z,95106.69
2023-03-12T07:06:51.258Z,95103.56
2023-03-12T07:09:20.655Z,95106.56
2023-03-12T07:11:49.482Z,95109.34
2023-03-12T07:14:18.366Z,95111.84
2023-03-12T07:16:47.397Z,95102.06
2023-03-12T07:19:16.495Z,95100.97
2023-03-12T07:21:45.288Z,95098.31
2023-03-12T07:24:14.708Z,95093.34
2023-03-12T07:26:44.223Z,95093.34
2023-03-12T07:29:13.076Z,95094.56
2023-03-12T07:31:42.012Z,95094.13
2023-03-12T07:34:11.010Z,95091.00
2023-03-12T07:36:40.107Z,95088.84
2023-03-12T07:39:09.600Z,95074.84
2023-03-12T07:41:39.644Z,95066.28
2023-03-12T07:44:08.760Z,95080.13
2023-03-12T07:46:37.819Z,95073.56
2023-03-12T07:49:06.650Z,95059.13
2023-03-12T07:51:35.512Z,95068.47
2023-03-12T07:54:04.428Z,95073.88
2023-03-12T07:56:35.053Z,95070.44
2023-03-12T07:59:05.143Z,95075.59
2023-03-12T08:01:35.023Z,95065.50
2023-03-12T08:04:04.236Z,95069.66
2023-03-12T08:06:33.084Z,95070.78
2023-03-12T08:09:01.915Z,95069.53
2023-03-12T08:11:31.545Z,95070.13
2023-03-12T08:14:00.342Z,95085.50
2023-03-12T08:16:29.152Z,95094.09
2023-03-12T08:18:58.391Z,95088.63
2023-03-12T08:21:27.307Z,95092.16
2023-03-12T08:23:56.125Z,95087.66
2023-03-12T08:26:25.026Z,95073.22
2023-03-12T08:28:53.866Z,95076.53
2023-03-12T08:31:22.739Z,95064.69
2023-03-12T08:33:51.553Z,95058.72
2023-03-12T08:36:22.398Z,95059.38
2023-03-12T08:38:51.499Z,95045.22
2023-03-12T08:41:20.519Z,95035.84
2023-03-12T08:43:49.438Z,95029.13
2023-03-12T08:46:18.442Z,95039.25
2023-03-12T08:48:47.429Z,95025.94
2023-03-12T08:51:17.050Z,95029.72
2023-03-12T08:53:47.746Z,95036.34
2023-03-12T08:56:16.754Z,95023.25
2023-03-12T08:58:45.604Z,95019.56
2023-03-12T09:01:15.878Z,95016.59
2023-03-12T09:03:44.882Z,95017.97
2023-03-12T09:06:17.416Z,95011.25
2023-03-12T09:08:47.796Z,95016.22
2023-03-12T09:11:16.658Z,95019.59
2023-03-12T09:16:34.701Z,95006.34
2023-03-12T09:19:06.732Z,94999.88
2023-03-12T09:21:35.505Z,95001.88
2023-03-12T09:24:04.802Z,94991.47
2023-03-12T09:26:33.795Z,94985.53
2023-03-12T09:29:02.938Z,94993.94
2023-03-12T09:31:31.801Z,94989.09
2023-03-12T09:34:00.667Z,94994.84
2023-03-12T09:36:29.705Z,94989.09
2023-03-12T09:38:58.922Z,94992.56
2023-03-12T09:41:31.451Z,94994.47
2023-03-12T09:44:05.930Z,95000.25
2023-03-12T09:46:56.834Z,94998.69
2023-03-12T09:49:33.486Z,95006.06
2023-03-12T09:52:08.911Z,95014.56
2023-03-12T09:54:53.293Z,95000.00
2023-03-12T09:57:25.596Z,95012.34
2023-03-12T09:59:54.481Z,95007.41
2023-03-12T10:02:42.104Z,95015.19
2023-03-12T10:05:31.313Z,94999.34
2023-03-12T10:08:24.964Z,95001.81
2023-03-12T10:11:18.045Z,94996.56
2023-03-12T10:14:04.900Z,94996.44
2023-03-12T10:16:48.740Z,94986.97
2023-03-12T10:19:45.311Z,94988.25
2023-03-12T10:22:22.401Z,94983.13
2023-03-12T10:25:16.154Z,94981.72
2023-03-12T10:27:45.046Z,94984.34
2023-03-12T10:30:26.412Z,94986.06
2023-03-12T10:33:00.313Z,94985.91
2023-03-12T10:35:33.697Z,94974.53
2023-03-12T10:38:05.889Z,94979.34
2023-03-12T10:40:37.580Z,94973.56
2023-03-12T10:43:10.575Z,94975.59
2023-03-12T10:46:05.520Z,94969.69
2023-03-12T10:48:34.664Z,94971.06
2023-03-12T10:51:07.298Z,94971.56
2023-03-12T10:53:40.837Z,94978.19
2023-03-12T10:56:13.165Z,94968.09
2023-03-12T10:58:48.205Z,94974.44
2023-03-12T11:01:22.521Z,94971.19
2023-03-12T11:03:53.437Z,94979.59
2023-03-12T11:06:26.541Z,94963.91
2023-03-12T11:09:16.558Z,94974.44
2023-03-12T11:11:48.545Z,94966.06
2023-03-12T11:14:19.220Z,94966.84
2023-03-12T11:16:49.209Z,94965.47
2023-03-12T11:19:47.573Z,94963.28
2023-03-12T11:22:29.015Z,94953.81
2023-03-12T11:25:05.162Z,94955.97
2023-03-12T11:27:50.737Z,94955.38
2023-03-12T11:30:25.709Z,94956.44
2023-03-12T11:32:56.377Z,94955.97
2023-03-12T11:35:44.998Z,94952.84
2023-03-12T11:38:32.272Z,94948.50
2023-03-12T11:41:48.644Z,94960.13
2023-03-12T11:44:29.490Z,94956.72
2023-03-12T11:47:13.816Z,94951.91
2023-03-12T11:50:09.597Z,94952.41
2023-03-12T11:53:16.889Z,94953.16
2023-03-12T11:56:13.689Z,94942.44
2023-03-12T11:59:07.505Z,94947.44
2023-03-12T12:01:56.261Z,94955.81
2023-03-12T12:04:44.625Z,94952.25
2023-03-12T12:07:26.928Z,94953.34
2023-03-12T12:10:23.408Z,94956.28
2023-03-12T12:12:59.154Z,94959.56
2023-03-12T12:15:39.969Z,94948.88
2023-03-12T12:18:37.663Z,94946.06
2023-03-12T12:21:43.738Z,94953.34
2023-03-12T12:24:34.803Z,94950.25
2023-03-12T12:27:21.664Z,94950.72
2023-03-12T12:30:16.519Z,94948.88
2023-03-12T12:33:28.729Z,94946.06
2023-03-12T12:35:58.058Z,94943.59
2023-03-12T12:38:37.593Z,94943.75
2023-03-12T12:41:12.129Z,94944.69
2023-03-12T12:43:43.095Z,94950.91
2023-03-12T12:46:29.033Z,94935.06
2023-03-12T12:49:23.335Z,94937.72
2023-03-12T12:51:58.457Z,94939.75
2023-03-12T12:54:42.472Z,94935.84
2023-03-12T12:57:19.468Z,94947.34
2023-03-12T13:00:10.685Z,94936.50
2023-03-12T13:02:43.046Z,94936.97
2023-03-12T13:05:27.449Z,94926.69
2023-03-12T13:07:56.473Z,94932.63
2023-03-12T13:10:34.549Z,94929.50
2023-03-12T13:13:22.526Z,94933.22
2023-03-12T13:15:51.667Z,94938.06
2023-03-12T13:18:30.970Z,94938.34
2023-03-12T13:21:24.980Z,94929.19
2023-03-12T13:24:23.086Z,94940.53
2023-03-12T13:27:29.803Z,94933.38
2023-03-12T13:29:58.958Z,94932.56
2023-03-12T13:32:58.275Z,94929.59
2023-03-12T13:35:27.251Z,94922.41
2023-03-12T13:37:56.392Z,94927.22
2023-03-12T13:40:31.295Z,94924.41
2023-03-12T13:43:09.321Z,94918.91
2023-03-12T13:46:07.076Z,94917.97
2023-03-12T13:48:37.530Z,94929.00
2023-03-12T13:51:22.568Z,94925.28
2023-03-12T13:53:56.519Z,94918.91
2023-03-12T13:56:34.374Z,94919.34
2023-03-12T13:59:08.817Z,94919.03
2023-03-12T14:01:47.654Z,94914.53
2023-03-12T14:04:23.177Z,94921.50
2023-03-12T14:07:19.813Z,94911.72
2023-03-12T14:09:57.879Z,94907.50
2023-03-12T14:12:40.033Z,94910.00
2023-03-12T14:15:27.117Z,94911.22
2023-03-12T14:18:06.966Z,94910.16
2023-03-12T14:20:39.528Z,94913.56
2023-03-12T14:23:15.901Z,94909.81
2023-03-12T14:25:47.654Z,94912.16
2023-03-12T14:28:25.253Z,94914.94
2023-03-12T14:31:05.790Z,94909.78
2023-03-12T14:33:51.214Z,94908.69
2023-03-12T14:36:27.530Z,94898.09
2023-03-12T14:39:22.923Z,94899.66
2023-03-12T14:42:00.948Z,94899.97
2023-03-12T14:44:31.312Z,94898.75
2023-03-12T14:47:04.643Z,94904.03
2023-03-12T14:49:39.402Z,94905.28
2023-03-12T14:52:08.754Z,94901.22
2023-03-12T14:54:40.240Z,94906.00
2023-03-12T14:57:16.153Z,94901.63
2023-03-12T14:59:54.933Z,94908.28
2023-03-12T15:02:25.354Z,94907.00
2023-03-12T15:04:58.563Z,94897.31
2023-03-12T15:07:40.085Z,94909.16
2023-03-12T15:10:19.349Z,94894.69
2023-03-12T15:12:48.866Z,94908.63
2023-03-12T15:15:31.077Z,94902.56
2023-03-12T15:18:00.296Z,94895.25
2023-03-12T15:20:31.885Z,94890.63
2023-03-12T15:23:04.374Z,94888.91
2023-03-12T15:25:35.167Z,94889.25
2023-03-12T15:28:16.199Z,94893.44
2023-03-12T15:30:45.477Z,94899.19
2023-03-12T15:33:27.232Z,94898.56
2023-03-12T15:36:27.272Z,94904.09
2023-03-12T15:38:57.684Z,94900.94
2023-03-12T15:41:46.116Z,94895.47
2023-03-12T15:44:26.962Z,94899.03
2023-03-12T15:47:04.670Z,94899.78
2023-03-12T15:49:36.812Z,94885.91
2023-03-12T15:52:36.869Z,94900.63
2023-03-12T15:55:27.177Z,94908.56
2023-03-12T15:57:57.681Z,94918.53
2023-03-12T16:00:28.928Z,94922.09
2023-03-12T16:03:04.640Z,94916.59
2023-03-12T16:05:39.328Z,94917.16
2023-03-12T16:08:24.090Z,94920.41
2023-03-12T16:10:53.940Z,94919.75
2023-03-12T16:13:29.006Z,94909.38
2023-03-12T16:15:59.040Z,94906.44
2023-03-12T16:18:28.084Z,94904.88
2023-03-12T16:20:56.889Z,94911.41
2023-03-12T16:23:25.649Z,94919.13
2023-03-12T16:25:57.131Z,94909.00
2023-03-12T16:28:26.933Z,94904.13
2023-03-12T16:30:55.874Z,94904.91
2023-03-12T16:33:25.760Z,94902.38
2023-03-12T16:35:54.735Z,94903.59
2023-03-12T16:38:23.567Z,94896.44
2023-03-12T16:40:53.641Z,94893.88
2023-03-12T16:43:29.805Z,94901.84
2023-03-12T16:45:59.076Z,94896.09
2023-03-12T16:48:28.451Z,94896.53
2023-03-12T16:50:59.025Z,94907.28
2023-03-12T16:53:27.993Z,94889.25
2023-03-12T16:56:02.137Z,94914.22
2023-03-12T16:58:31.780Z,94909.38
2023-03-12T17:01:01.627Z,94908.28
2023-03-12T17:03:40.505Z,94910.63
2023-03-12T17:06:16.300Z,94906.88
2023-03-12T17:08:46.270Z,94911.06
2023-03-12T17:11:19.541Z,94907.75
2023-03-12T17:13:53.163Z,94917.25
2023-03-12T17:16:22.844Z,94911.94
2023-03-12T17:18:51.869Z,94914.28
2023-03-12T17:21:21.386Z,94912.41
2023-03-12T17:23:51.196Z,94913.84
2023-03-12T17:26:20.348Z,94922.25
2023-03-12T17:28:49.217Z,94935.06
2023-03-12T17:31:18.457Z,94927.44
2023-03-12T17:33:47.312Z,94922.00
2023-03-12T17:36:16.152Z,94932.06
2023-03-12T17:38:44.919Z,94928.97
2023-03-12T17:41:25.464Z,94936.06
2023-03-12T17:43:59.059Z,94942.91
2023-03-12T17:46:28.921Z,94936.63
2023-03-12T17:48:58.103Z,94947.69
2023-03-12T17:51:26.936Z,94945.16
2023-03-12T17:53:55.969Z,94947.34
2023-03-12T17:56:24.868Z,94951.88
2023-03-12T17:58:53.653Z,94959.66
2023-03-12T18:01:23.199Z,94957.41
2023-03-12T18:03:52.237Z,94959.84
2023-03-12T18:06:21.001Z,94965.03
2023-03-12T18:08:50.308Z,94971.78
2023-03-12T18:11:19.152Z,94982.69
2023-03-12T18:13:49.075Z,94987.38
2023-03-12T18:16:18.714Z,94980.16
2023-03-12T18:18:47.628Z,94984.38
2023-03-12T18:21:16.422Z,94989.22
2023-03-12T18:23:46.838Z,94986.00
2023-03-12T18:26:15.737Z,95000.06
2023-03-12T18:28:44.475Z,94997.84
2023-03-12T18:31:13.441Z,95007.56
2023-03-12T18:33:42.492Z,95013.31
2023-03-12T18:36:11.326Z,95019.72
2023-03-12T18:38:40.008Z,95009.22
2023-03-12T18:41:12.800Z,94997.41
2023-03-12T18:43:42.579Z,95043.59
2023-03-12T18:46:12.046Z,95057.94
2023-03-12T18:48:43.586Z,95043.13
2023-03-12T18:51:12.904Z,95055.31
2023-03-12T18:53:42.143Z,95059.38
2023-03-12T18:56:10.816Z,95070.13
2023-03-12T18:58:40.320Z,95068.56
2023-03-12T19:01:09.807Z,95086.03
2023-03-12T19:03:38.761Z,95094.44
2023-03-12T19:06:10.303Z,95105.25
2023-03-12T19:08:39.610Z,95133.63
2023-03-12T19:11:11.486Z,95124.19
2023-03-12T19:13:40.623Z,95119.47
2023-03-12T19:16:11.837Z,95111.47
2023-03-12T19:18:40.765Z,95123.34
2023-03-12T19:21:09.643Z,95149.72
2023-03-12T19:23:38.689Z,95152.69
2023-03-12T19:26:08.287Z,95150.53
2023-03-12T19:28:38.465Z,95148.53
2023-03-12T19:31:10.455Z,95154.63
2023-03-12T19:33:39.353Z,95142.22
2023-03-12T19:36:08.696Z,95176.19
2023-03-12T19:38:37.635Z,95180.72
2023-03-12T19:41:09.250Z,95185.56
2023-03-12T19:43:38.734Z,95192.59
2023-03-12T19:46:07.865Z,95227.16
2023-03-12T19:48:36.936Z,95221.53
2023-03-12T19:51:10.721Z,95219.94
2023-03-12T19:53:39.955Z,95241.09
2023-03-12T19:56:09.255Z,95238.69
2023-03-12T19:58:38.022Z,95262.94
2023-03-12T20:01:07.235Z,95281.22
2023-03-12T20:03:43.435Z,95251.75
2023-03-12T20:06:13.428Z,95290.47
2023-03-12T20:08:42.263Z,95277.53
2023-03-12T20:11:11.403Z,95301.00
2023-03-12T20:13:40.411Z,95318.03
2023-03-12T20:16:09.377Z,95288.19
2023-03-12T20:18:38.202Z,95317.69
2023-03-12T20:21:06.978Z,95325.69
2023-03-12T20:23:35.824Z,95314.78
2023-03-12T20:26:04.849Z,95340.56
2023-03-12T20:28:33.649Z,95345.97
2023-03-12T20:31:10.659Z,95365.53
2023-03-12T20:33:39.682Z,95367.47
2023-03-12T20:36:10.670Z,95372.56
2023-03-12T20:38:39.438Z,95387.69
2023-03-12T20:41:13.764Z,95394.50
2023-03-12T20:43:43.510Z,95414.50
2023-03-12T20:46:13.452Z,95408.69
2023-03-12T20:48:42.443Z,95443.13
2023-03-12T20:51:11.387Z,95435.38
2023-03-12T20:53:40.241Z,95462.09
2023-03-12T20:56:09.962Z,95464.53
2023-03-12T20:58:38.761Z,95477.84
2023-03-12T21:01:08.737Z,95478.19
2023-03-12T21:03:37.823Z,95503.22
2023-03-12T21:06:07.159Z,95485.88
2023-03-12T21:08:36.074Z,95520.75
2023-03-12T21:11:09.450Z,95537.94
2023-03-12T21:13:38.341Z,95527.03
2023-03-12T21:16:09.003Z,95544.69
2023-03-12T21:18:38.099Z,95551.63
2023-03-12T21:21:08.805Z,95570.94
2023-03-12T21:23:39.430Z,95559.66
2023-03-12T21:26:09.621Z,95569.50
2023-03-12T21:28:38.964Z,95586.34
2023-03-12T21:31:10.644Z,95586.16
2023-03-12T21:33:40.089Z,95592.22
2023-03-12T21:36:11.348Z,95602.50
2023-03-12T21:38:43.310Z,95611.28
2023-03-12T21:41:16.496Z,95607.84
2023-03-12T21:43:46.694Z,95614.72
2023-03-12T21:46:18.125Z,95603.25
2023-03-12T21:48:48.829Z,95612.25
2023-03-12T21:51:18.879Z,95603.03
2023-03-12T21:53:49.982Z,95627.41
2023-03-12T21:56:18.998Z,95610.97
2023-03-12T21:58:47.922Z,95653.13
2023-03-12T22:01:19.612Z,95668.66
2023-03-12T22:03:48.662Z,95643.97
2023-03-12T22:06:18.019Z,95655.66
2023-03-12T22:08:50.783Z,95669.44
2023-03-12T22:11:20.179Z,95655.19
2023-03-12T22:13:49.449Z,95672.50
2023-03-12T22:16:18.582Z,95648.28
2023-03-12T22:18:47.717Z,95685.00
2023-03-12T22:21:19.513Z,95689.53
2023-03-12T22:23:51.627Z,95693.44
2023-03-12T22:26:22.763Z,95702.88
2023-03-12T22:28:54.034Z,95695.81
2023-03-12T22:31:29.038Z,95696.53
2023-03-12T22:33:58.384Z,95716.53
2023-03-12T22:36:27.474Z,95713.47
2023-03-12T22:38:56.552Z,95719.59
2023-03-12T22:41:27.424Z,95718.06
2023-03-12T22:43:58.711Z,95733.38
2023-03-12T22:46:28.194Z,95730.00
2023-03-12T22:49:00.143Z,95753.38
2023-03-12T22:51:31.752Z,95755.19
2023-03-12T22:54:01.244Z,95755.19
2023-03-12T22:56:30.415Z,95750.03
2023-03-12T22:58:59.809Z,95768.16
2023-03-12T23:01:29.947Z,95776.28
2023-03-12T23:04:00.342Z,95764.81
2023-03-12T23:06:30.752Z,95787.34
2023-03-12T23:09:00.167Z,95794.41
2023-03-12T23:11:30.222Z,95781.03
2023-03-12T23:13:59.147Z,95799.97
2023-03-12T23:16:28.239Z,95796.03
2023-03-12T23:18:57.209Z,95802.66
2023-03-12T23:21:26.981Z,95784.31
2023-03-12T23:23:55.754Z,95807.16
2023-03-12T23:26:27.373Z,95806.28
2023-03-12T23:28:58.362Z,95813.63
2023-03-12T23:31:29.029Z,95830.41
2023-03-12T23:33:59.051Z,95837.53
2023-03-12T23:36:28.402Z,95843.84
2023-03-12T23:38:57.550Z,95825.75
2023-03-12T23:41:31.930Z,95845.16
2023-03-12T23:44:01.394Z,95843.63
2023-03-12T23:46:30.721Z,95854.66
2023-03-12T23:48:59.553Z,95863.06
2023-03-12T23:51:33.753Z,95860.72
2023-03-12T23:54:05.800Z,95861.75
2023-03-12T23:56:39.964Z,95860.72
2023-03-12T23:59:10.238Z,95859.91
